sensor_id;sensor_type;location;lat;lon;timestamp;P1;durP1;ratioP1;P2;durP2;ratioP2
61397;SDS011;47267;48.130;-2.040;2024-02-16T00:00:16;3.58;;;1.67;;
61397;SDS011;47267;48.130;-2.040;2024-02-16T00:02:42;3.42;;;1.85;;
61397;SDS011;47267;48.130;-2.040;2024-02-16T00:05:09;3.53;;;1.70;;
61397;SDS011;47267;48.130;-2.040;2024-02-16T00:07:38;3.00;;;1.55;;
61397;SDS011;47267;48.130;-2.040;2024-02-16T00:10:05;3.10;;;1.80;;
61397;SDS011;47267;48.130;-2.040;2024-02-16T00:12:32;4.60;;;1.88;;
61397;SDS011;47267;48.130;-2.040;2024-02-16T00:14:58;4.43;;;2.10;;
61397;SDS011;47267;48.130;-2.040;2024-02-16T00:17:24;4.13;;;1.95;;
61397;SDS011;47267;48.130;-2.040;2024-02-16T00:19:56;3.75;;;1.83;;
61397;SDS011;47267;48.130;-2.040;2024-02-16T00:22:22;4.07;;;1.88;;
61397;SDS011;47267;48.130;-2.040;2024-02-16T00:24:48;4.75;;;1.80;;
61397;SDS011;47267;48.130;-2.040;2024-02-16T00:27:14;3.92;;;1.60;;
61397;SDS011;47267;48.130;-2.040;2024-02-16T00:29:40;2.80;;;1.65;;
61397;SDS011;47267;48.130;-2.040;2024-02-16T00:32:07;3.55;;;1.80;;
61397;SDS011;47267;48.130;-2.040;2024-02-16T00:34:33;5.28;;;1.80;;
61397;SDS011;47267;48.130;-2.040;2024-02-16T00:37:00;3.75;;;2.03;;
61397;SDS011;47267;48.130;-2.040;2024-02-16T00:39:25;3.80;;;1.98;;
61397;SDS011;47267;48.130;-2.040;2024-02-16T00:41:51;5.10;;;2.05;;
61397;SDS011;47267;48.130;-2.040;2024-02-16T00:44:17;5.10;;;2.15;;
61397;SDS011;47267;48.130;-2.040;2024-02-16T00:46:46;4.50;;;1.85;;
61397;SDS011;47267;48.130;-2.040;2024-02-16T00:49:12;3.80;;;1.73;;
61397;SDS011;47267;48.130;-2.040;2024-02-16T00:51:38;3.95;;;1.90;;
61397;SDS011;47267;48.130;-2.040;2024-02-16T00:54:04;4.50;;;1.98;;
61397;SDS011;47267;48.130;-2.040;2024-02-16T00:56:31;3.70;;;1.52;;
61397;SDS011;47267;48.130;-2.040;2024-02-16T00:58:57;4.40;;;1.80;;
61397;SDS011;47267;48.130;-2.040;2024-02-16T01:01:23;5.90;;;2.00;;
61397;SDS011;47267;48.130;-2.040;2024-02-16T01:03:51;3.40;;;1.88;;
61397;SDS011;47267;48.130;-2.040;2024-02-16T01:06:17;4.70;;;1.88;;
61397;SDS011;47267;48.130;-2.040;2024-02-16T01:08:43;3.78;;;1.42;;
61397;SDS011;47267;48.130;-2.040;2024-02-16T01:11:09;4.40;;;1.83;;
61397;SDS011;47267;48.130;-2.040;2024-02-16T01:13:35;4.07;;;1.80;;
61397;SDS011;47267;48.130;-2.040;2024-02-16T01:16:02;5.45;;;2.03;;
61397;SDS011;47267;48.130;-2.040;2024-02-16T01:18:28;3.67;;;1.85;;
61397;SDS011;47267;48.130;-2.040;2024-02-16T01:20:55;4.55;;;1.67;;
61397;SDS011;47267;48.130;-2.040;2024-02-16T01:23:21;3.35;;;1.75;;
61397;SDS011;47267;48.130;-2.040;2024-02-16T01:25:47;4.13;;;1.83;;
61397;SDS011;47267;48.130;-2.040;2024-02-16T01:28:13;4.13;;;1.58;;
61397;SDS011;47267;48.130;-2.040;2024-02-16T01:30:39;4.15;;;1.83;;
61397;SDS011;47267;48.130;-2.040;2024-02-16T01:33:05;5.05;;;2.00;;
61397;SDS011;47267;48.130;-2.040;2024-02-16T01:35:34;3.90;;;1.80;;
61397;SDS011;47267;48.130;-2.040;2024-02-16T01:38:00;4.35;;;1.98;;
61397;SDS011;47267;48.130;-2.040;2024-02-16T01:40:29;3.85;;;1.40;;
61397;SDS011;47267;48.130;-2.040;2024-02-16T01:42:54;3.25;;;1.70;;
61397;SDS011;47267;48.130;-2.040;2024-02-16T01:45:20;6.85;;;1.92;;
61397;SDS011;47267;48.130;-2.040;2024-02-16T01:47:50;3.88;;;1.75;;
61397;SDS011;47267;48.130;-2.040;2024-02-16T01:50:17;6.27;;;2.00;;
61397;SDS011;47267;48.130;-2.040;2024-02-16T01:52:44;4.57;;;1.90;;
61397;SDS011;47267;48.130;-2.040;2024-02-16T01:55:11;2.60;;;1.67;;
61397;SDS011;47267;48.130;-2.040;2024-02-16T01:57:42;4.25;;;1.73;;
61397;SDS011;47267;48.130;-2.040;2024-02-16T02:00:09;4.38;;;2.17;;
61397;SDS011;47267;48.130;-2.040;2024-02-16T02:02:35;4.15;;;1.60;;
61397;SDS011;47267;48.130;-2.040;2024-02-16T02:05:02;5.22;;;1.67;;
61397;SDS011;47267;48.130;-2.040;2024-02-16T02:07:28;3.78;;;1.73;;
61397;SDS011;47267;48.130;-2.040;2024-02-16T02:09:55;2.40;;;1.42;;
61397;SDS011;47267;48.130;-2.040;2024-02-16T02:12:21;2.67;;;1.48;;
61397;SDS011;47267;48.130;-2.040;2024-02-16T02:14:47;3.65;;;1.60;;
61397;SDS011;47267;48.130;-2.040;2024-02-16T02:17:14;4.10;;;1.75;;
61397;SDS011;47267;48.130;-2.040;2024-02-16T02:19:40;4.60;;;2.00;;
61397;SDS011;47267;48.130;-2.040;2024-02-16T02:22:11;3.67;;;1.50;;
61397;SDS011;47267;48.130;-2.040;2024-02-16T02:24:39;3.20;;;1.35;;
61397;SDS011;47267;48.130;-2.040;2024-02-16T02:27:04;4.78;;;2.17;;
61397;SDS011;47267;48.130;-2.040;2024-02-16T02:29:30;3.97;;;1.65;;
61397;SDS011;47267;48.130;-2.040;2024-02-16T02:31:56;3.90;;;1.75;;
61397;SDS011;47267;48.130;-2.040;2024-02-16T02:34:21;3.83;;;1.88;;
61397;SDS011;47267;48.130;-2.040;2024-02-16T02:36:47;4.25;;;1.65;;
61397;SDS011;47267;48.130;-2.040;2024-02-16T02:39:14;6.75;;;1.98;;
61397;SDS011;47267;48.130;-2.040;2024-02-16T02:41:39;5.18;;;1.80;;
61397;SDS011;47267;48.130;-2.040;2024-02-16T02:44:05;3.70;;;1.52;;
61397;SDS011;47267;48.130;-2.040;2024-02-16T02:46:31;3.88;;;1.30;;
61397;SDS011;47267;48.130;-2.040;2024-02-16T02:48:56;3.60;;;1.63;;
61397;SDS011;47267;48.130;-2.040;2024-02-16T02:51:22;3.35;;;1.35;;
61397;SDS011;47267;48.130;-2.040;2024-02-16T02:53:48;4.03;;;1.35;;
61397;SDS011;47267;48.130;-2.040;2024-02-16T02:56:14;3.60;;;1.60;;
61397;SDS011;47267;48.130;-2.040;2024-02-16T02:58:40;2.42;;;1.45;;
61397;SDS011;47267;48.130;-2.040;2024-02-16T03:01:06;3.05;;;1.38;;
61397;SDS011;47267;48.130;-2.040;2024-02-16T03:03:33;2.33;;;1.15;;
61397;SDS011;47267;48.130;-2.040;2024-02-16T03:05:59;2.58;;;1.35;;
61397;SDS011;47267;48.130;-2.040;2024-02-16T03:08:24;2.70;;;1.40;;
61397;SDS011;47267;48.130;-2.040;2024-02-16T03:10:50;3.05;;;1.35;;
61397;SDS011;47267;48.130;-2.040;2024-02-16T03:13:16;1.98;;;1.35;;
61397;SDS011;47267;48.130;-2.040;2024-02-16T03:15:44;2.45;;;1.20;;
61397;SDS011;47267;48.130;-2.040;2024-02-16T03:18:10;2.55;;;1.17;;
61397;SDS011;47267;48.130;-2.040;2024-02-16T03:20:36;2.28;;;1.10;;
61397;SDS011;47267;48.130;-2.040;2024-02-16T03:23:01;1.83;;;1.00;;
61397;SDS011;47267;48.130;-2.040;2024-02-16T03:25:28;2.78;;;1.35;;
61397;SDS011;47267;48.130;-2.040;2024-02-16T03:27:54;3.05;;;1.20;;
61397;SDS011;47267;48.130;-2.040;2024-02-16T03:30:20;1.98;;;1.08;;
61397;SDS011;47267;48.130;-2.040;2024-02-16T03:32:49;3.08;;;1.20;;
61397;SDS011;47267;48.130;-2.040;2024-02-16T03:35:15;2.10;;;1.08;;
61397;SDS011;47267;48.130;-2.040;2024-02-16T03:37:41;3.15;;;1.10;;
61397;SDS011;47267;48.130;-2.040;2024-02-16T03:40:07;2.17;;;1.00;;
61397;SDS011;47267;48.130;-2.040;2024-02-16T03:42:34;3.72;;;1.27;;
61397;SDS011;47267;48.130;-2.040;2024-02-16T03:45:01;2.35;;;1.25;;
61397;SDS011;47267;48.130;-2.040;2024-02-16T03:47:29;1.92;;;1.13;;
61397;SDS011;47267;48.130;-2.040;2024-02-16T03:49:55;2.25;;;1.17;;
61397;SDS011;47267;48.130;-2.040;2024-02-16T03:52:21;2.40;;;1.25;;
61397;SDS011;47267;48.130;-2.040;2024-02-16T03:54:46;2.08;;;1.20;;
61397;SDS011;47267;48.130;-2.040;2024-02-16T03:57:14;2.20;;;1.20;;
61397;SDS011;47267;48.130;-2.040;2024-02-16T03:59:41;3.58;;;1.33;;
61397;SDS011;47267;48.130;-2.040;2024-02-16T04:02:09;2.03;;;1.10;;
61397;SDS011;47267;48.130;-2.040;2024-02-16T04:04:35;1.42;;;0.98;;
61397;SDS011;47267;48.130;-2.040;2024-02-16T04:07:01;5.82;;;1.30;;
61397;SDS011;47267;48.130;-2.040;2024-02-16T04:09:27;2.72;;;1.10;;
61397;SDS011;47267;48.130;-2.040;2024-02-16T04:11:53;1.92;;;0.95;;
61397;SDS011;47267;48.130;-2.040;2024-02-16T04:14:18;1.88;;;0.82;;
61397;SDS011;47267;48.130;-2.040;2024-02-16T04:16:44;2.78;;;1.35;;
61397;SDS011;47267;48.130;-2.040;2024-02-16T04:19:10;1.92;;;0.85;;
61397;SDS011;47267;48.130;-2.040;2024-02-16T04:21:36;2.22;;;1.35;;
61397;SDS011;47267;48.130;-2.040;2024-02-16T04:24:02;1.50;;;0.80;;
61397;SDS011;47267;48.130;-2.040;2024-02-16T04:26:28;2.58;;;1.30;;
61397;SDS011;47267;48.130;-2.040;2024-02-16T04:28:54;1.67;;;0.90;;
61397;SDS011;47267;48.130;-2.040;2024-02-16T04:31:19;2.50;;;1.10;;
61397;SDS011;47267;48.130;-2.040;2024-02-16T04:33:45;2.78;;;1.00;;
61397;SDS011;47267;48.130;-2.040;2024-02-16T04:36:11;2.08;;;0.90;;
61397;SDS011;47267;48.130;-2.040;2024-02-16T04:38:36;1.58;;;0.90;;
61397;SDS011;47267;48.130;-2.040;2024-02-16T04:41:04;1.52;;;0.90;;
61397;SDS011;47267;48.130;-2.040;2024-02-16T04:43:30;2.35;;;1.13;;
61397;SDS011;47267;48.130;-2.040;2024-02-16T04:45:56;3.72;;;1.10;;
61397;SDS011;47267;48.130;-2.040;2024-02-16T04:48:21;1.35;;;0.73;;
61397;SDS011;47267;48.130;-2.040;2024-02-16T04:50:47;1.27;;;0.77;;
61397;SDS011;47267;48.130;-2.040;2024-02-16T04:53:13;2.78;;;1.05;;
61397;SDS011;47267;48.130;-2.040;2024-02-16T04:55:38;1.98;;;0.93;;
61397;SDS011;47267;48.130;-2.040;2024-02-16T04:58:04;1.98;;;1.00;;
61397;SDS011;47267;48.130;-2.040;2024-02-16T05:00:34;2.63;;;1.10;;
61397;SDS011;47267;48.130;-2.040;2024-02-16T05:03:02;1.85;;;0.90;;
61397;SDS011;47267;48.130;-2.040;2024-02-16T05:05:28;2.85;;;0.90;;
61397;SDS011;47267;48.130;-2.040;2024-02-16T05:07:54;2.55;;;1.00;;
61397;SDS011;47267;48.130;-2.040;2024-02-16T05:10:19;3.30;;;1.10;;
61397;SDS011;47267;48.130;-2.040;2024-02-16T05:12:45;1.65;;;1.00;;
61397;SDS011;47267;48.130;-2.040;2024-02-16T05:15:11;1.92;;;0.98;;
61397;SDS011;47267;48.130;-2.040;2024-02-16T05:17:40;1.95;;;0.93;;
61397;SDS011;47267;48.130;-2.040;2024-02-16T05:20:09;1.75;;;0.90;;
61397;SDS011;47267;48.130;-2.040;2024-02-16T05:22:40;2.20;;;1.08;;
61397;SDS011;47267;48.130;-2.040;2024-02-16T05:25:10;1.38;;;0.70;;
61397;SDS011;47267;48.130;-2.040;2024-02-16T05:27:39;2.13;;;0.80;;
61397;SDS011;47267;48.130;-2.040;2024-02-16T05:30:05;1.48;;;0.80;;
61397;SDS011;47267;48.130;-2.040;2024-02-16T05:32:37;1.77;;;0.70;;
61397;SDS011;47267;48.130;-2.040;2024-02-16T05:35:03;1.65;;;0.85;;
61397;SDS011;47267;48.130;-2.040;2024-02-16T05:37:36;1.17;;;0.70;;
61397;SDS011;47267;48.130;-2.040;2024-02-16T05:40:05;2.70;;;0.90;;
61397;SDS011;47267;48.130;-2.040;2024-02-16T05:42:43;2.38;;;0.70;;
61397;SDS011;47267;48.130;-2.040;2024-02-16T05:45:11;1.42;;;0.77;;
61397;SDS011;47267;48.130;-2.040;2024-02-16T05:47:36;2.03;;;0.70;;
61397;SDS011;47267;48.130;-2.040;2024-02-16T05:50:03;2.33;;;0.80;;
61397;SDS011;47267;48.130;-2.040;2024-02-16T05:52:30;1.67;;;0.70;;
61397;SDS011;47267;48.130;-2.040;2024-02-16T05:54:55;2.08;;;0.77;;
61397;SDS011;47267;48.130;-2.040;2024-02-16T05:57:21;2.03;;;0.80;;
61397;SDS011;47267;48.130;-2.040;2024-02-16T05:59:48;3.35;;;1.00;;
61397;SDS011;47267;48.130;-2.040;2024-02-16T06:02:14;1.42;;;0.70;;
61397;SDS011;47267;48.130;-2.040;2024-02-16T06:04:40;2.10;;;0.90;;
61397;SDS011;47267;48.130;-2.040;2024-02-16T06:07:06;2.38;;;0.88;;
61397;SDS011;47267;48.130;-2.040;2024-02-16T06:09:33;1.58;;;0.73;;
61397;SDS011;47267;48.130;-2.040;2024-02-16T06:12:03;2.13;;;0.60;;
61397;SDS011;47267;48.130;-2.040;2024-02-16T06:14:30;1.92;;;0.70;;
61397;SDS011;47267;48.130;-2.040;2024-02-16T06:16:56;2.40;;;0.85;;
61397;SDS011;47267;48.130;-2.040;2024-02-16T06:19:22;4.10;;;0.85;;
61397;SDS011;47267;48.130;-2.040;2024-02-16T06:21:48;1.50;;;0.70;;
61397;SDS011;47267;48.130;-2.040;2024-02-16T06:24:13;2.63;;;0.75;;
61397;SDS011;47267;48.130;-2.040;2024-02-16T06:26:39;1.95;;;0.85;;
61397;SDS011;47267;48.130;-2.040;2024-02-16T06:29:04;1.70;;;0.75;;
61397;SDS011;47267;48.130;-2.040;2024-02-16T06:31:30;3.45;;;0.95;;
61397;SDS011;47267;48.130;-2.040;2024-02-16T06:33:56;4.93;;;0.70;;
61397;SDS011;47267;48.130;-2.040;2024-02-16T06:36:22;2.50;;;0.90;;
61397;SDS011;47267;48.130;-2.040;2024-02-16T06:38:48;2.58;;;1.00;;
61397;SDS011;47267;48.130;-2.040;2024-02-16T06:41:14;2.42;;;1.00;;
61397;SDS011;47267;48.130;-2.040;2024-02-16T06:43:39;4.20;;;0.90;;
61397;SDS011;47267;48.130;-2.040;2024-02-16T06:46:05;4.00;;;1.40;;
61397;SDS011;47267;48.130;-2.040;2024-02-16T06:48:31;5.68;;;1.05;;
61397;SDS011;47267;48.130;-2.040;2024-02-16T06:50:56;4.35;;;1.10;;
61397;SDS011;47267;48.130;-2.040;2024-02-16T06:53:22;2.83;;;1.00;;
61397;SDS011;47267;48.130;-2.040;2024-02-16T06:55:48;6.05;;;1.00;;
61397;SDS011;47267;48.130;-2.040;2024-02-16T06:58:14;2.60;;;1.00;;
61397;SDS011;47267;48.130;-2.040;2024-02-16T07:00:40;5.13;;;1.10;;
61397;SDS011;47267;48.130;-2.040;2024-02-16T07:03:07;3.78;;;1.13;;
61397;SDS011;47267;48.130;-2.040;2024-02-16T07:05:34;7.32;;;1.83;;
61397;SDS011;47267;48.130;-2.040;2024-02-16T07:08:00;4.80;;;1.60;;
61397;SDS011;47267;48.130;-2.040;2024-02-16T07:10:26;6.05;;;2.35;;
61397;SDS011;47267;48.130;-2.040;2024-02-16T07:12:51;16.80;;;2.53;;
61397;SDS011;47267;48.130;-2.040;2024-02-16T07:15:17;12.85;;;2.65;;
61397;SDS011;47267;48.130;-2.040;2024-02-16T07:17:43;6.38;;;2.20;;
61397;SDS011;47267;48.130;-2.040;2024-02-16T07:20:09;7.05;;;2.13;;
61397;SDS011;47267;48.130;-2.040;2024-02-16T07:22:35;6.22;;;2.13;;
61397;SDS011;47267;48.130;-2.040;2024-02-16T07:25:01;5.63;;;2.40;;
61397;SDS011;47267;48.130;-2.040;2024-02-16T07:27:28;7.53;;;2.47;;
61397;SDS011;47267;48.130;-2.040;2024-02-16T07:29:54;8.13;;;2.10;;
61397;SDS011;47267;48.130;-2.040;2024-02-16T07:32:20;8.77;;;2.20;;
61397;SDS011;47267;48.130;-2.040;2024-02-16T07:34:46;7.38;;;2.28;;
61397;SDS011;47267;48.130;-2.040;2024-02-16T07:37:15;6.55;;;2.17;;
61397;SDS011;47267;48.130;-2.040;2024-02-16T07:39:41;5.68;;;2.22;;
61397;SDS011;47267;48.130;-2.040;2024-02-16T07:42:07;7.40;;;2.00;;
61397;SDS011;47267;48.130;-2.040;2024-02-16T07:44:36;4.32;;;1.85;;
61397;SDS011;47267;48.130;-2.040;2024-02-16T07:47:02;7.03;;;1.63;;
61397;SDS011;47267;48.130;-2.040;2024-02-16T07:49:28;9.13;;;2.15;;
61397;SDS011;47267;48.130;-2.040;2024-02-16T07:51:54;4.43;;;2.13;;
61397;SDS011;47267;48.130;-2.040;2024-02-16T07:54:20;4.45;;;1.40;;
61397;SDS011;47267;48.130;-2.040;2024-02-16T07:56:46;9.07;;;2.47;;
61397;SDS011;47267;48.130;-2.040;2024-02-16T07:59:12;5.03;;;2.03;;
61397;SDS011;47267;48.130;-2.040;2024-02-16T08:01:37;8.45;;;2.10;;
61397;SDS011;47267;48.130;-2.040;2024-02-16T08:04:03;10.35;;;2.35;;
61397;SDS011;47267;48.130;-2.040;2024-02-16T08:06:29;4.53;;;2.30;;
61397;SDS011;47267;48.130;-2.040;2024-02-16T08:08:55;4.38;;;1.48;;
61397;SDS011;47267;48.130;-2.040;2024-02-16T08:11:22;5.90;;;2.05;;
61397;SDS011;47267;48.130;-2.040;2024-02-16T08:13:47;6.00;;;2.10;;
61397;SDS011;47267;48.130;-2.040;2024-02-16T08:16:13;5.30;;;2.00;;
61397;SDS011;47267;48.130;-2.040;2024-02-16T08:18:39;6.68;;;2.28;;
61397;SDS011;47267;48.130;-2.040;2024-02-16T08:21:04;6.97;;;2.10;;
61397;SDS011;47267;48.130;-2.040;2024-02-16T08:23:30;4.57;;;1.70;;
61397;SDS011;47267;48.130;-2.040;2024-02-16T08:25:56;6.03;;;2.00;;
61397;SDS011;47267;48.130;-2.040;2024-02-16T08:28:23;3.42;;;1.70;;
61397;SDS011;47267;48.130;-2.040;2024-02-16T08:30:50;5.88;;;1.70;;
61397;SDS011;47267;48.130;-2.040;2024-02-16T08:33:15;5.45;;;1.60;;
61397;SDS011;47267;48.130;-2.040;2024-02-16T08:35:41;4.55;;;1.98;;
61397;SDS011;47267;48.130;-2.040;2024-02-16T08:38:06;6.40;;;1.95;;
61397;SDS011;47267;48.130;-2.040;2024-02-16T08:40:38;5.05;;;1.85;;
61397;SDS011;47267;48.130;-2.040;2024-02-16T08:43:05;5.13;;;1.90;;
61397;SDS011;47267;48.130;-2.040;2024-02-16T08:45:32;4.90;;;1.70;;
61397;SDS011;47267;48.130;-2.040;2024-02-16T08:47:58;5.28;;;1.90;;
61397;SDS011;47267;48.130;-2.040;2024-02-16T08:50:26;3.17;;;1.55;;
61397;SDS011;47267;48.130;-2.040;2024-02-16T08:52:52;4.75;;;1.83;;
61397;SDS011;47267;48.130;-2.040;2024-02-16T08:55:18;4.85;;;1.95;;
61397;SDS011;47267;48.130;-2.040;2024-02-16T08:57:44;5.25;;;1.95;;
61397;SDS011;47267;48.130;-2.040;2024-02-16T09:00:10;7.80;;;2.22;;
61397;SDS011;47267;48.130;-2.040;2024-02-16T09:02:37;5.03;;;2.22;;
61397;SDS011;47267;48.130;-2.040;2024-02-16T09:05:03;5.13;;;2.05;;
61397;SDS011;47267;48.130;-2.040;2024-02-16T09:07:30;5.40;;;1.75;;
61397;SDS011;47267;48.130;-2.040;2024-02-16T09:09:55;4.72;;;1.83;;
61397;SDS011;47267;48.130;-2.040;2024-02-16T09:12:21;5.50;;;2.03;;
61397;SDS011;47267;48.130;-2.040;2024-02-16T09:14:48;5.07;;;1.88;;
61397;SDS011;47267;48.130;-2.040;2024-02-16T09:17:13;4.72;;;2.20;;
61397;SDS011;47267;48.130;-2.040;2024-02-16T09:19:39;5.22;;;1.83;;
61397;SDS011;47267;48.130;-2.040;2024-02-16T09:22:05;10.88;;;1.60;;
61397;SDS011;47267;48.130;-2.040;2024-02-16T09:24:31;7.47;;;1.85;;
61397;SDS011;47267;48.130;-2.040;2024-02-16T09:26:57;5.45;;;2.15;;
61397;SDS011;47267;48.130;-2.040;2024-02-16T09:29:28;7.97;;;2.20;;
61397;SDS011;47267;48.130;-2.040;2024-02-16T09:31:54;3.90;;;2.20;;
61397;SDS011;47267;48.130;-2.040;2024-02-16T09:34:20;8.30;;;3.03;;
61397;SDS011;47267;48.130;-2.040;2024-02-16T09:36:45;4.55;;;2.17;;
61397;SDS011;47267;48.130;-2.040;2024-02-16T09:39:11;6.32;;;2.15;;
61397;SDS011;47267;48.130;-2.040;2024-02-16T09:41:37;7.43;;;3.13;;
61397;SDS011;47267;48.130;-2.040;2024-02-16T09:44:07;11.57;;;2.90;;
61397;SDS011;47267;48.130;-2.040;2024-02-16T09:46:34;7.88;;;2.83;;
61397;SDS011;47267;48.130;-2.040;2024-02-16T09:49:01;9.10;;;3.08;;
61397;SDS011;47267;48.130;-2.040;2024-02-16T09:51:28;7.93;;;2.30;;
61397;SDS011;47267;48.130;-2.040;2024-02-16T09:53:54;8.32;;;3.00;;
61397;SDS011;47267;48.130;-2.040;2024-02-16T09:56:22;7.25;;;2.47;;
61397;SDS011;47267;48.130;-2.040;2024-02-16T09:58:51;5.15;;;2.70;;
61397;SDS011;47267;48.130;-2.040;2024-02-16T10:01:20;4.05;;;2.40;;
61397;SDS011;47267;48.130;-2.040;2024-02-16T10:03:48;6.22;;;2.50;;
61397;SDS011;47267;48.130;-2.040;2024-02-16T10:06:14;7.35;;;2.70;;
61397;SDS011;47267;48.130;-2.040;2024-02-16T10:08:53;8.98;;;2.78;;
61397;SDS011;47267;48.130;-2.040;2024-02-16T10:11:20;5.70;;;2.28;;
61397;SDS011;47267;48.130;-2.040;2024-02-16T10:16:28;6.85;;;2.60;;
61397;SDS011;47267;48.130;-2.040;2024-02-16T10:18:56;4.10;;;2.50;;
61397;SDS011;47267;48.130;-2.040;2024-02-16T10:21:32;5.07;;;2.40;;
61397;SDS011;47267;48.130;-2.040;2024-02-16T10:26:28;6.40;;;2.40;;
61397;SDS011;47267;48.130;-2.040;2024-02-16T10:28:54;6.25;;;2.38;;
61397;SDS011;47267;48.130;-2.040;2024-02-16T10:31:24;5.55;;;2.72;;
61397;SDS011;47267;48.130;-2.040;2024-02-16T10:33:58;5.38;;;2.38;;
61397;SDS011;47267;48.130;-2.040;2024-02-16T10:36:31;6.53;;;2.67;;
61397;SDS011;47267;48.130;-2.040;2024-02-16T10:38:58;3.63;;;1.88;;
61397;SDS011;47267;48.130;-2.040;2024-02-16T10:41:27;4.93;;;2.63;;
61397;SDS011;47267;48.130;-2.040;2024-02-16T10:43:54;4.28;;;2.05;;
61397;SDS011;47267;48.130;-2.040;2024-02-16T10:46:21;6.28;;;2.50;;
61397;SDS011;47267;48.130;-2.040;2024-02-16T10:48:48;6.10;;;2.40;;
61397;SDS011;47267;48.130;-2.040;2024-02-16T10:51:13;8.25;;;2.40;;
61397;SDS011;47267;48.130;-2.040;2024-02-16T10:53:43;5.95;;;2.28;;
61397;SDS011;47267;48.130;-2.040;2024-02-16T10:56:10;6.13;;;2.30;;
61397;SDS011;47267;48.130;-2.040;2024-02-16T10:58:36;5.85;;;2.22;;
61397;SDS011;47267;48.130;-2.040;2024-02-16T11:01:08;7.57;;;2.42;;
61397;SDS011;47267;48.130;-2.040;2024-02-16T11:03:38;5.43;;;2.65;;
61397;SDS011;47267;48.130;-2.040;2024-02-16T11:06:16;5.22;;;2.45;;
61397;SDS011;47267;48.130;-2.040;2024-02-16T11:08:42;16.70;;;2.50;;
61397;SDS011;47267;48.130;-2.040;2024-02-16T11:11:08;7.97;;;2.78;;
61397;SDS011;47267;48.130;-2.040;2024-02-16T11:13:37;5.38;;;2.38;;
61397;SDS011;47267;48.130;-2.040;2024-02-16T11:16:06;6.72;;;2.42;;
61397;SDS011;47267;48.130;-2.040;2024-02-16T11:18:37;5.18;;;2.05;;
61397;SDS011;47267;48.130;-2.040;2024-02-16T11:21:14;5.63;;;2.15;;
61397;SDS011;47267;48.130;-2.040;2024-02-16T11:23:40;5.38;;;2.40;;
61397;SDS011;47267;48.130;-2.040;2024-02-16T11:26:09;11.18;;;2.60;;
61397;SDS011;47267;48.130;-2.040;2024-02-16T11:28:39;7.28;;;2.50;;
61397;SDS011;47267;48.130;-2.040;2024-02-16T11:31:06;4.78;;;2.25;;
61397;SDS011;47267;48.130;-2.040;2024-02-16T11:33:32;6.88;;;2.58;;
61397;SDS011;47267;48.130;-2.040;2024-02-16T11:36:02;6.07;;;2.22;;
61397;SDS011;47267;48.130;-2.040;2024-02-16T11:38:32;7.85;;;2.67;;
61397;SDS011;47267;48.130;-2.040;2024-02-16T11:41:05;6.57;;;2.60;;
61397;SDS011;47267;48.130;-2.040;2024-02-16T11:43:32;4.93;;;2.30;;
61397;SDS011;47267;48.130;-2.040;2024-02-16T11:45:58;6.80;;;2.40;;
61397;SDS011;47267;48.130;-2.040;2024-02-16T11:48:25;5.50;;;2.08;;
61397;SDS011;47267;48.130;-2.040;2024-02-16T11:51:01;6.68;;;2.92;;
61397;SDS011;47267;48.130;-2.040;2024-02-16T11:53:28;4.97;;;2.08;;
61397;SDS011;47267;48.130;-2.040;2024-02-16T11:55:57;5.75;;;2.30;;
61397;SDS011;47267;48.130;-2.040;2024-02-16T11:58:23;4.43;;;2.45;;
61397;SDS011;47267;48.130;-2.040;2024-02-16T12:00:50;5.15;;;2.35;;
61397;SDS011;47267;48.130;-2.040;2024-02-16T12:03:26;6.07;;;2.22;;
61397;SDS011;47267;48.130;-2.040;2024-02-16T12:05:56;5.70;;;2.00;;
61397;SDS011;47267;48.130;-2.040;2024-02-16T12:08:23;4.63;;;2.10;;
61397;SDS011;47267;48.130;-2.040;2024-02-16T12:10:50;5.40;;;2.15;;
61397;SDS011;47267;48.130;-2.040;2024-02-16T12:13:17;5.18;;;2.30;;
61397;SDS011;47267;48.130;-2.040;2024-02-16T12:15:44;7.97;;;2.08;;
61397;SDS011;47267;48.130;-2.040;2024-02-16T12:18:20;5.03;;;1.80;;
61397;SDS011;47267;48.130;-2.040;2024-02-16T12:23:44;7.53;;;2.42;;
61397;SDS011;47267;48.130;-2.040;2024-02-16T12:26:10;4.63;;;1.98;;
61397;SDS011;47267;48.130;-2.040;2024-02-16T12:28:35;7.88;;;2.20;;
61397;SDS011;47267;48.130;-2.040;2024-02-16T12:31:02;4.05;;;1.70;;
61397;SDS011;47267;48.130;-2.040;2024-02-16T12:33:28;5.68;;;2.10;;
61397;SDS011;47267;48.130;-2.040;2024-02-16T12:35:53;4.50;;;1.85;;
61397;SDS011;47267;48.130;-2.040;2024-02-16T12:38:19;3.88;;;2.03;;
61397;SDS011;47267;48.130;-2.040;2024-02-16T12:40:48;3.45;;;1.70;;
61397;SDS011;47267;48.130;-2.040;2024-02-16T12:43:14;5.38;;;1.90;;
61397;SDS011;47267;48.130;-2.040;2024-02-16T12:45:40;6.00;;;2.20;;
61397;SDS011;47267;48.130;-2.040;2024-02-16T12:48:06;3.63;;;1.75;;
61397;SDS011;47267;48.130;-2.040;2024-02-16T12:50:32;4.05;;;1.83;;
61397;SDS011;47267;48.130;-2.040;2024-02-16T12:52:58;5.65;;;2.10;;
61397;SDS011;47267;48.130;-2.040;2024-02-16T12:55:24;6.32;;;2.38;;
61397;SDS011;47267;48.130;-2.040;2024-02-16T12:57:50;5.30;;;2.03;;
61397;SDS011;47267;48.130;-2.040;2024-02-16T13:00:16;5.13;;;1.88;;
61397;SDS011;47267;48.130;-2.040;2024-02-16T13:02:42;3.53;;;1.80;;
61397;SDS011;47267;48.130;-2.040;2024-02-16T13:05:08;4.15;;;2.22;;
61397;SDS011;47267;48.130;-2.040;2024-02-16T13:07:34;3.85;;;1.85;;
61397;SDS011;47267;48.130;-2.040;2024-02-16T13:10:00;9.73;;;2.03;;
61397;SDS011;47267;48.130;-2.040;2024-02-16T13:12:26;6.55;;;2.13;;
61397;SDS011;47267;48.130;-2.040;2024-02-16T13:14:52;4.47;;;1.83;;
61397;SDS011;47267;48.130;-2.040;2024-02-16T13:17:18;5.22;;;1.75;;
61397;SDS011;47267;48.130;-2.040;2024-02-16T13:19:45;6.05;;;1.50;;
61397;SDS011;47267;48.130;-2.040;2024-02-16T13:22:11;4.22;;;1.85;;
61397;SDS011;47267;48.130;-2.040;2024-02-16T13:24:37;4.13;;;1.77;;
61397;SDS011;47267;48.130;-2.040;2024-02-16T13:27:02;7.88;;;1.75;;
61397;SDS011;47267;48.130;-2.040;2024-02-16T13:29:30;5.75;;;1.77;;
61397;SDS011;47267;48.130;-2.040;2024-02-16T13:31:56;3.28;;;1.50;;
61397;SDS011;47267;48.130;-2.040;2024-02-16T13:34:22;5.70;;;1.90;;
61397;SDS011;47267;48.130;-2.040;2024-02-16T13:36:48;3.60;;;2.17;;
61397;SDS011;47267;48.130;-2.040;2024-02-16T13:39:14;4.55;;;1.73;;
61397;SDS011;47267;48.130;-2.040;2024-02-16T13:41:41;4.47;;;1.65;;
61397;SDS011;47267;48.130;-2.040;2024-02-16T13:44:08;4.88;;;1.80;;
61397;SDS011;47267;48.130;-2.040;2024-02-16T13:46:34;4.10;;;1.73;;
61397;SDS011;47267;48.130;-2.040;2024-02-16T13:49:00;5.18;;;1.88;;
61397;SDS011;47267;48.130;-2.040;2024-02-16T13:51:26;3.80;;;1.25;;
61397;SDS011;47267;48.130;-2.040;2024-02-16T13:53:52;4.72;;;1.90;;
61397;SDS011;47267;48.130;-2.040;2024-02-16T13:56:17;3.28;;;1.48;;
61397;SDS011;47267;48.130;-2.040;2024-02-16T13:58:43;3.83;;;1.67;;
61397;SDS011;47267;48.130;-2.040;2024-02-16T14:01:09;5.60;;;1.73;;
61397;SDS011;47267;48.130;-2.040;2024-02-16T14:03:35;4.63;;;1.73;;
61397;SDS011;47267;48.130;-2.040;2024-02-16T14:06:01;4.25;;;1.90;;
61397;SDS011;47267;48.130;-2.040;2024-02-16T14:08:27;6.88;;;2.35;;
61397;SDS011;47267;48.130;-2.040;2024-02-16T14:10:53;4.95;;;1.92;;
61397;SDS011;47267;48.130;-2.040;2024-02-16T14:13:19;5.13;;;1.80;;
61397;SDS011;47267;48.130;-2.040;2024-02-16T14:15:46;7.32;;;2.13;;
61397;SDS011;47267;48.130;-2.040;2024-02-16T14:18:12;4.90;;;2.03;;
61397;SDS011;47267;48.130;-2.040;2024-02-16T14:20:37;4.43;;;1.83;;
61397;SDS011;47267;48.130;-2.040;2024-02-16T14:23:03;5.28;;;2.20;;
61397;SDS011;47267;48.130;-2.040;2024-02-16T14:25:32;4.47;;;1.70;;
61397;SDS011;47267;48.130;-2.040;2024-02-16T14:27:57;3.83;;;1.67;;
61397;SDS011;47267;48.130;-2.040;2024-02-16T14:30:23;3.17;;;1.60;;
61397;SDS011;47267;48.130;-2.040;2024-02-16T14:32:49;6.57;;;2.08;;
61397;SDS011;47267;48.130;-2.040;2024-02-16T14:35:14;5.53;;;1.95;;
61397;SDS011;47267;48.130;-2.040;2024-02-16T14:37:40;5.20;;;1.92;;